createdAt,value
2022-11-24T00:00:48.057Z,28.52
2022-11-24T00:03:18.787Z,28.64
2022-11-24T00:05:49.680Z,28.81
2022-11-24T00:08:20.208Z,28.97
2022-11-24T00:10:50.943Z,29.02
2022-11-24T00:13:21.399Z,29.10
2022-11-24T00:15:52.357Z,29.09
2022-11-24T00:18:23.063Z,29.15
2022-11-24T00:20:55.111Z,29.20
2022-11-24T00:23:28.370Z,29.31
2022-11-24T00:26:06.413Z,29.40
2022-11-24T00:28:37.440Z,29.51
2022-11-24T00:31:19.131Z,29.56
2022-11-24T00:33:51.408Z,29.61
2022-11-24T00:36:23.395Z,29.65
2022-11-24T00:39:02.037Z,29.73
2022-11-24T00:41:33.101Z,29.83
2022-11-24T00:44:04.265Z,29.84
2022-11-24T00:46:38.697Z,29.90
2022-11-24T00:49:09.956Z,30.00
2022-11-24T00:51:40.653Z,30.08
2022-11-24T00:54:12.005Z,30.10
2022-11-24T00:56:42.512Z,30.19
2022-11-24T00:59:13.349Z,30.25
2022-11-24T01:01:44.046Z,30.25
2022-11-24T01:04:14.581Z,30.30
2022-11-24T01:06:45.445Z,30.35
2022-11-24T01:09:15.985Z,30.38
2022-11-24T01:12:02.913Z,30.45
2022-11-24T01:14:34.167Z,30.53
2022-11-24T01:17:06.111Z,30.59
2022-11-24T01:19:36.861Z,30.64
2022-11-24T01:22:07.701Z,30.67
2022-11-24T01:24:38.500Z,30.74
2022-11-24T01:27:08.849Z,30.76
2022-11-24T01:29:40.091Z,30.81
2022-11-24T01:32:10.293Z,30.87
2022-11-24T01:34:40.796Z,30.90
2022-11-24T01:37:11.508Z,30.94
2022-11-24T01:39:42.133Z,31.01
2022-11-24T01:42:12.961Z,31.04
2022-11-24T01:44:43.493Z,30.95
2022-11-24T01:47:32.865Z,31.08
2022-11-24T01:50:04.865Z,31.12
2022-11-24T01:52:40.387Z,31.16
2022-11-24T01:55:16.328Z,31.21
2022-11-24T01:57:54.158Z,31.33
2022-11-24T02:00:24.848Z,31.43
2022-11-24T02:02:55.410Z,31.44
2022-11-24T02:05:32.589Z,31.50
2022-11-24T02:08:03.820Z,31.56
2022-11-24T02:10:35.422Z,31.58
2022-11-24T02:13:06.221Z,31.47
2022-11-24T02:15:37.912Z,31.35
2022-11-24T02:18:08.422Z,31.38
2022-11-24T02:20:39.803Z,31.42
2022-11-24T02:23:26.718Z,31.40
2022-11-24T02:26:16.857Z,31.43
2022-11-24T02:28:48.441Z,31.38
2022-11-24T02:31:18.918Z,31.38
2022-11-24T02:33:51.895Z,31.39
2022-11-24T02:36:22.339Z,31.37
2022-11-24T02:38:53.088Z,31.38
2022-11-24T02:41:24.660Z,31.44
2022-11-24T02:44:01.532Z,31.42
2022-11-24T02:46:32.441Z,31.43
2022-11-24T02:49:03.360Z,31.52
2022-11-24T02:51:35.470Z,31.46
2022-11-24T02:54:05.769Z,31.48
2022-11-24T02:56:36.059Z,31.44
2022-11-24T02:59:06.690Z,31.52
2022-11-24T03:01:37.016Z,31.55
2022-11-24T03:04:08.897Z,31.53
2022-11-24T03:06:39.724Z,31.63
2022-11-24T03:09:11.820Z,31.67
2022-11-24T03:11:43.255Z,31.79
2022-11-24T03:14:14.066Z,31.85
2022-11-24T03:16:44.854Z,31.96
2022-11-24T03:19:15.679Z,31.90
2022-11-24T03:21:46.331Z,31.89
2022-11-24T03:24:17.168Z,31.79
2022-11-24T03:26:49.755Z,31.79
2022-11-24T03:29:20.056Z,31.78
2022-11-24T03:31:50.731Z,31.87
2022-11-24T03:34:21.350Z,31.91
2022-11-24T03:36:52.509Z,31.94
2022-11-24T03:39:24.459Z,32.00
2022-11-24T03:41:55.308Z,32.05
2022-11-24T03:44:26.256Z,32.17
2022-11-24T03:46:56.647Z,32.18
2022-11-24T03:49:27.729Z,32.25
2022-11-24T03:52:00.645Z,32.27
2022-11-24T03:54:36.644Z,32.28
2022-11-24T03:57:07.203Z,32.40
2022-11-24T03:59:37.501Z,32.40
2022-11-24T04:02:08.793Z,32.50
2022-11-24T04:04:39.540Z,32.54
2022-11-24T04:07:10.607Z,32.64
2022-11-24T04:09:41.676Z,32.66
2022-11-24T04:12:30.957Z,32.65
2022-11-24T04:15:01.168Z,32.76
2022-11-24T04:17:34.052Z,32.79
2022-11-24T04:20:04.683Z,32.80
2022-11-24T04:22:37.734Z,32.87
2022-11-24T04:25:09.603Z,32.94
2022-11-24T04:27:40.216Z,33.02
2022-11-24T04:30:11.776Z,33.01
2022-11-24T04:32:42.643Z,33.08
2022-11-24T04:35:13.865Z,33.13
2022-11-24T04:37:44.481Z,32.96
2022-11-24T04:40:15.848Z,33.02
2022-11-24T04:42:53.123Z,32.95
2022-11-24T04:45:24.546Z,32.96
2022-11-24T04:47:55.131Z,32.97
2022-11-24T04:50:26.199Z,33.01
2022-11-24T04:52:56.569Z,33.11
2022-11-24T04:55:27.226Z,33.20
2022-11-24T04:57:59.159Z,33.25
2022-11-24T05:00:29.604Z,33.37
2022-11-24T05:03:01.324Z,33.37
2022-11-24T05:05:31.903Z,33.34
2022-11-24T05:08:02.933Z,33.37
2022-11-24T05:10:36.634Z,33.49
2022-11-24T05:13:11.532Z,33.54
2022-11-24T05:15:43.032Z,33.64
2022-11-24T05:18:16.243Z,33.74
2022-11-24T05:20:46.977Z,33.81
2022-11-24T05:23:17.858Z,33.77
2022-11-24T05:25:52.080Z,33.87
2022-11-24T05:28:23.318Z,33.91
2022-11-24T05:30:54.208Z,33.85
2022-11-24T05:33:25.123Z,33.94
2022-11-24T05:35:56.157Z,33.83
2022-11-24T05:38:27.627Z,33.71
2022-11-24T05:41:05.936Z,33.63
2022-11-24T05:43:39.891Z,33.70
2022-11-24T05:46:10.457Z,33.60
2022-11-24T05:48:41.049Z,33.61
2022-11-24T05:51:12.063Z,33.58
2022-11-24T05:53:42.597Z,33.70
2022-11-24T05:56:12.987Z,33.85
2022-11-24T05:58:44.672Z,33.89
2022-11-24T06:01:15.556Z,34.03
2022-11-24T06:03:46.593Z,34.16
2022-11-24T06:06:17.173Z,34.21
2022-11-24T06:08:48.103Z,34.33
2022-11-24T06:11:19.031Z,34.41
2022-11-24T06:13:49.943Z,34.50
2022-11-24T06:16:22.432Z,34.61
2022-11-24T06:18:52.778Z,34.76
2022-11-24T06:21:23.321Z,34.80
2022-11-24T06:23:54.380Z,34.87
2022-11-24T06:26:25.106Z,34.96
2022-11-24T06:28:55.718Z,35.00
2022-11-24T06:31:27.393Z,35.07
2022-11-24T06:33:58.649Z,34.98
2022-11-24T06:36:29.638Z,35.03
2022-11-24T06:39:03.232Z,34.96
2022-11-24T06:41:34.355Z,34.86
2022-11-24T06:44:05.973Z,34.70
2022-11-24T06:46:37.907Z,34.55
2022-11-24T06:49:08.479Z,34.47
2022-11-24T06:51:39.413Z,34.44
2022-11-24T06:54:16.674Z,34.37
2022-11-24T06:56:47.308Z,34.24
2022-11-24T06:59:21.103Z,34.12
2022-11-24T07:01:51.774Z,34.11
2022-11-24T07:04:22.486Z,34.08
2022-11-24T07:06:52.971Z,33.94
2022-11-24T07:09:23.831Z,33.90
2022-11-24T07:11:57.615Z,33.86
2022-11-24T07:14:27.905Z,33.81
2022-11-24T07:16:58.781Z,33.73
2022-11-24T07:19:29.507Z,33.67
2022-11-24T07:22:00.325Z,33.67
2022-11-24T07:24:31.527Z,33.58
2022-11-24T07:27:02.242Z,33.52
2022-11-24T07:29:33.110Z,33.53
2022-11-24T07:32:05.654Z,33.49
2022-11-24T07:34:38.629Z,33.48
2022-11-24T07:37:10.123Z,33.48
2022-11-24T07:39:40.942Z,33.47
2022-11-24T07:42:12.474Z,33.42
2022-11-24T07:44:43.346Z,33.39
2022-11-24T07:47:14.040Z,33.39
2022-11-24T07:49:44.797Z,33.35
2022-11-24T07:52:15.444Z,33.33
2022-11-24T07:54:46.525Z,33.26
2022-11-24T07:57:17.285Z,33.22
2022-11-24T07:59:48.128Z,33.23
2022-11-24T08:02:18.700Z,33.21
2022-11-24T08:04:49.401Z,33.17
2022-11-24T08:07:20.348Z,33.14
2022-11-24T08:09:51.546Z,33.12
2022-11-24T08:12:24.573Z,33.11
2022-11-24T08:14:55.456Z,33.08
2022-11-24T08:17:26.633Z,33.08
2022-11-24T08:19:57.774Z,33.07
2022-11-24T08:22:28.056Z,33.07
2022-11-24T08:24:58.656Z,33.05
2022-11-24T08:27:29.282Z,33.04
2022-11-24T08:30:00.589Z,33.02
2022-11-24T08:32:32.326Z,33.00
2022-11-24T08:35:13.734Z,32.99
2022-11-24T08:37:45.124Z,32.94
2022-11-24T08:40:16.263Z,32.94
2022-11-24T08:42:47.130Z,32.92
2022-11-24T08:45:21.209Z,32.92
2022-11-24T08:47:58.510Z,32.92
2022-11-24T08:50:29.372Z,32.86
2022-11-24T08:52:59.946Z,32.90
2022-11-24T08:55:31.458Z,32.86
2022-11-24T08:58:02.039Z,32.88
2022-11-24T09:00:32.321Z,32.82
2022-11-24T09:03:03.987Z,32.82
2022-11-24T09:08:25.103Z,32.78
2022-11-24T09:10:56.115Z,32.78
2022-11-24T09:13:26.661Z,32.79
2022-11-24T09:16:05.496Z,32.73
2022-11-24T09:18:36.619Z,32.73
2022-11-24T09:21:19.672Z,32.72
2022-11-24T09:23:52.214Z,32.69
2022-11-24T09:26:25.718Z,32.65
2022-11-24T09:28:57.751Z,32.64
2022-11-24T09:31:31.599Z,32.63
2022-11-24T09:34:04.187Z,32.61
2022-11-24T09:36:35.330Z,32.57
2022-11-24T09:39:06.827Z,32.54
2022-11-24T09:41:58.520Z,32.51
2022-11-24T09:44:47.084Z,32.55
2022-11-24T09:47:35.790Z,32.54
2022-11-24T09:50:23.383Z,32.53
2022-11-24T09:53:13.289Z,32.49
2022-11-24T09:55:58.732Z,32.49
2022-11-24T09:58:46.311Z,32.44
2022-11-24T10:01:42.076Z,32.40
2022-11-24T10:04:23.951Z,32.40
2022-11-24T10:07:13.236Z,32.43
2022-11-24T10:09:50.373Z,32.33
2022-11-24T10:12:51.259Z,32.39
2022-11-24T10:15:35.869Z,32.34
2022-11-24T10:18:31.271Z,32.39
2022-11-24T10:21:38.920Z,32.37
2022-11-24T10:24:41.284Z,32.34
2022-11-24T10:27:22.987Z,32.32
2022-11-24T10:29:54.483Z,32.29
2022-11-24T10:32:29.596Z,32.27
2022-11-24T10:35:18.203Z,32.23
2022-11-24T10:38:23.798Z,32.19
2022-11-24T10:41:11.894Z,32.21
2022-11-24T10:43:43.221Z,32.16
2022-11-24T10:46:21.063Z,32.19
2022-11-24T10:49:03.954Z,32.18
2022-11-24T10:51:46.948Z,32.18
2022-11-24T10:54:20.504Z,32.11
2022-11-24T10:56:54.521Z,32.08
2022-11-24T10:59:40.329Z,32.09
2022-11-24T11:02:43.100Z,32.05
2022-11-24T11:05:29.571Z,32.04
2022-11-24T11:08:23.020Z,31.99
2022-11-24T11:11:31.418Z,32.00
2022-11-24T11:14:04.939Z,31.95
2022-11-24T11:16:55.585Z,31.99
2022-11-24T11:19:50.883Z,31.92
2022-11-24T11:22:29.076Z,31.94
2022-11-24T11:25:24.246Z,31.95
2022-11-24T11:28:23.665Z,31.92
2022-11-24T11:34:12.495Z,31.91
2022-11-24T11:36:51.094Z,31.83
2022-11-24T11:39:36.837Z,31.85
2022-11-24T11:42:53.634Z,31.79
2022-11-24T11:45:42.514Z,31.79
2022-11-24T11:48:16.257Z,31.78
2022-11-24T11:51:21.859Z,31.74
2022-11-24T11:53:47.470Z,31.72
2022-11-24T11:56:18.055Z,31.72
2022-11-24T11:59:13.747Z,31.69
2022-11-24T12:02:06.455Z,31.72
2022-11-24T12:04:51.817Z,31.69
2022-11-24T12:07:48.985Z,31.62
2022-11-24T12:10:33.525Z,31.68
2022-11-24T12:13:36.891Z,31.79
2022-11-24T12:16:39.881Z,31.81
2022-11-24T12:19:16.211Z,31.78
2022-11-24T12:22:02.347Z,31.84
2022-11-24T12:24:52.845Z,31.85
2022-11-24T12:27:33.337Z,31.92
2022-11-24T12:30:15.134Z,31.91
2022-11-24T12:33:26.945Z,31.98
2022-11-24T12:36:15.547Z,31.91
2022-11-24T12:38:54.808Z,31.89
2022-11-24T12:41:50.650Z,31.94
2022-11-24T12:44:27.628Z,31.95
2022-11-24T12:47:14.958Z,31.96
2022-11-24T12:50:09.303Z,31.98
2022-11-24T12:52:52.878Z,31.93
2022-11-24T12:55:26.731Z,31.95
2022-11-24T12:58:12.702Z,31.93
2022-11-24T13:01:02.534Z,31.94
2022-11-24T13:03:53.263Z,31.98
2022-11-24T13:06:32.037Z,31.93
2022-11-24T13:09:13.803Z,31.92
2022-11-24T13:11:50.904Z,31.90
2022-11-24T13:14:34.285Z,31.91
2022-11-24T13:17:39.703Z,31.91
2022-11-24T13:20:21.014Z,31.86
2022-11-24T13:22:57.483Z,31.86
2022-11-24T13:25:41.634Z,31.86
2022-11-24T13:29:01.753Z,31.89
2022-11-24T13:31:36.953Z,31.84
2022-11-24T13:34:56.002Z,31.87
2022-11-24T13:37:33.974Z,31.80
2022-11-24T13:40:15.545Z,31.84
2022-11-24T13:43:06.988Z,31.83
2022-11-24T13:45:40.704Z,31.76
2022-11-24T13:48:21.157Z,31.79
2022-11-24T13:50:55.733Z,31.78
2022-11-24T13:53:47.130Z,31.78
2022-11-24T13:56:17.515Z,31.77
2022-11-24T13:58:51.932Z,31.76
2022-11-24T14:01:30.506Z,31.78
2022-11-24T14:04:32.640Z,31.73
2022-11-24T14:07:09.717Z,31.74
2022-11-24T14:09:46.469Z,31.71
2022-11-24T14:12:19.998Z,31.63
2022-11-24T14:14:52.685Z,31.63
2022-11-24T14:17:24.704Z,31.63
2022-11-24T14:19:57.352Z,31.62
2022-11-24T14:22:36.415Z,31.58
2022-11-24T14:25:09.683Z,31.57
2022-11-24T14:27:41.027Z,31.56
2022-11-24T14:30:11.343Z,31.59
2022-11-24T14:32:43.235Z,31.55
2022-11-24T14:35:29.709Z,31.50
2022-11-24T14:38:04.802Z,31.53
2022-11-24T14:40:43.633Z,31.51
2022-11-24T14:43:30.060Z,31.53
2022-11-24T14:46:03.903Z,31.50
2022-11-24T14:48:39.155Z,31.48
2022-11-24T14:51:13.220Z,31.44
2022-11-24T14:53:48.255Z,31.46
2022-11-24T14:56:29.666Z,31.44
2022-11-24T14:59:00.805Z,31.45
2022-11-24T15:01:34.450Z,31.44
2022-11-24T15:04:38.811Z,31.48
2022-11-24T15:07:27.757Z,31.44
2022-11-24T15:10:00.502Z,31.42
2022-11-24T15:12:37.883Z,31.43
2022-11-24T15:15:33.067Z,31.45
2022-11-24T15:18:04.809Z,31.42
2022-11-24T15:20:38.844Z,31.41
2022-11-24T15:23:25.839Z,31.42
2022-11-24T15:26:06.004Z,31.41
2022-11-24T15:28:36.549Z,31.38
2022-11-24T15:31:11.099Z,31.34
2022-11-24T15:33:43.445Z,31.34
2022-11-24T15:36:15.844Z,31.33
2022-11-24T15:38:46.998Z,31.29
2022-11-24T15:41:22.297Z,31.29
2022-11-24T15:43:59.807Z,31.30
2022-11-24T15:46:40.629Z,31.28
2022-11-24T15:49:11.554Z,31.26
2022-11-24T15:51:45.172Z,31.22
2022-11-24T15:54:19.522Z,31.22
2022-11-24T15:56:49.853Z,31.19
2022-11-24T15:59:21.260Z,31.18
2022-11-24T16:01:52.877Z,31.03
2022-11-24T16:04:23.988Z,30.95
2022-11-24T16:06:54.902Z,30.93
2022-11-24T16:09:25.435Z,30.94
2022-11-24T16:11:55.694Z,30.90
2022-11-24T16:14:28.646Z,30.87
2022-11-24T16:16:59.119Z,30.86
2022-11-24T16:19:30.179Z,30.88
2022-11-24T16:22:00.412Z,30.83
2022-11-24T16:24:30.814Z,30.79
2022-11-24T16:27:01.358Z,30.78
2022-11-24T16:29:36.875Z,30.77
2022-11-24T16:32:20.096Z,30.74
2022-11-24T16:34:50.787Z,30.71
2022-11-24T16:37:24.477Z,30.64
2022-11-24T16:39:55.279Z,30.62
2022-11-24T16:42:26.030Z,30.60
2022-11-24T16:44:56.858Z,30.61
2022-11-24T16:47:27.123Z,30.57
2022-11-24T16:49:57.692Z,30.54
2022-11-24T16:52:28.452Z,30.57
2022-11-24T16:54:59.152Z,30.53
2022-11-24T16:57:30.029Z,30.56
2022-11-24T17:00:01.057Z,30.57
2022-11-24T17:02:31.967Z,30.53
2022-11-24T17:05:03.304Z,30.56
2022-11-24T17:07:34.487Z,30.55
2022-11-24T17:10:05.632Z,30.52
2022-11-24T17:12:37.734Z,30.51
2022-11-24T17:18:23.530Z,30.50
2022-11-24T17:20:51.530Z,30.49
2022-11-24T17:23:22.516Z,30.46
2022-11-24T17:25:53.066Z,30.44
2022-11-24T17:28:23.972Z,30.43
2022-11-24T17:30:54.948Z,30.42
2022-11-24T17:33:25.809Z,30.44
2022-11-24T17:35:56.252Z,30.41
2022-11-24T17:38:26.698Z,30.39
2022-11-24T17:40:58.545Z,30.38
2022-11-24T17:43:31.765Z,30.32
2022-11-24T17:46:03.620Z,30.35
2022-11-24T17:48:34.532Z,30.30
2022-11-24T17:51:08.758Z,30.27
2022-11-24T17:53:40.950Z,30.33
2022-11-24T17:56:19.322Z,30.33
2022-11-24T17:58:50.353Z,30.29
2022-11-24T18:01:21.043Z,30.28
2022-11-24T18:03:53.641Z,30.29
2022-11-24T18:06:26.211Z,30.27
2022-11-24T18:08:59.183Z,30.28
2022-11-24T18:11:32.178Z,30.26
2022-11-24T18:14:04.999Z,30.22
2022-11-24T18:16:36.483Z,30.22
2022-11-24T18:19:11.505Z,30.24
2022-11-24T18:21:45.678Z,30.21
2022-11-24T18:24:19.780Z,30.17
2022-11-24T18:26:54.237Z,30.18
2022-11-24T18:29:24.781Z,30.16
2022-11-24T18:31:55.259Z,30.17
2022-11-24T18:34:27.080Z,30.18
2022-11-24T18:36:58.485Z,30.17
2022-11-24T18:39:30.458Z,30.17
2022-11-24T18:42:00.913Z,30.14
2022-11-24T18:44:31.846Z,30.13
2022-11-24T18:47:02.877Z,30.07
2022-11-24T18:49:33.293Z,30.11
2022-11-24T18:52:03.909Z,30.08
2022-11-24T18:54:35.177Z,30.07
2022-11-24T18:57:06.218Z,30.04
2022-11-24T18:59:37.759Z,30.04
2022-11-24T19:02:08.184Z,30.07
2022-11-24T19:04:39.525Z,30.05
2022-11-24T19:07:10.177Z,30.01
2022-11-24T19:09:40.759Z,30.01
2022-11-24T19:12:11.742Z,30.00
2022-11-24T19:14:42.583Z,29.96
2022-11-24T19:17:13.394Z,29.99
2022-11-24T19:19:44.157Z,29.98
2022-11-24T19:22:16.739Z,29.96
2022-11-24T19:24:47.981Z,29.94
2022-11-24T19:27:19.586Z,29.92
2022-11-24T19:29:50.023Z,29.90
2022-11-24T19:32:20.486Z,29.91
2022-11-24T19:34:50.879Z,29.91
2022-11-24T19:37:22.427Z,29.88
2022-11-24T19:39:53.349Z,29.88
2022-11-24T19:42:26.789Z,29.87
2022-11-24T19:44:57.895Z,29.83
2022-11-24T19:47:29.593Z,29.84
2022-11-24T19:49:59.909Z,29.81
2022-11-24T19:52:31.100Z,29.83
2022-11-24T19:55:01.661Z,29.81
2022-11-24T19:57:33.605Z,29.81
2022-11-24T20:00:04.569Z,29.80
2022-11-24T20:02:35.523Z,29.78
2022-11-24T20:05:09.063Z,29.80
2022-11-24T20:07:42.271Z,29.77
2022-11-24T20:10:12.949Z,29.82
2022-11-24T20:12:44.090Z,29.79
2022-11-24T20:15:15.293Z,29.79
2022-11-24T20:17:46.009Z,29.79
2022-11-24T20:20:24.196Z,29.77
2022-11-24T20:22:54.840Z,29.78
2022-11-24T20:25:28.670Z,29.80
2022-11-24T20:27:58.889Z,29.76
2022-11-24T20:30:29.768Z,29.73
2022-11-24T20:33:01.099Z,29.75
2022-11-24T20:35:31.644Z,29.71
2022-11-24T20:38:02.102Z,29.70
2022-11-24T20:40:32.831Z,29.70
2022-11-24T20:43:03.430Z,29.71
2022-11-24T20:45:34.269Z,29.75
2022-11-24T20:48:04.938Z,29.72
2022-11-24T20:50:39.030Z,29.70
2022-11-24T20:53:10.219Z,29.69
2022-11-24T20:55:40.465Z,29.70
2022-11-24T20:58:20.236Z,29.71
2022-11-24T21:00:51.321Z,29.70
2022-11-24T21:03:21.812Z,29.68
2022-11-24T21:05:56.875Z,29.72
2022-11-24T21:08:30.630Z,29.72
2022-11-24T21:11:01.887Z,29.73
2022-11-24T21:13:36.623Z,29.68
2022-11-24T21:16:15.967Z,29.69
2022-11-24T21:18:48.480Z,29.66
2022-11-24T21:21:20.712Z,29.62
2022-11-24T21:23:52.231Z,29.61
2022-11-24T21:26:23.196Z,29.60
2022-11-24T21:28:53.840Z,29.61
2022-11-24T21:31:27.530Z,29.60
2022-11-24T21:33:59.851Z,29.57
2022-11-24T21:36:30.454Z,29.59
2022-11-24T21:39:01.390Z,29.58
2022-11-24T21:41:34.238Z,29.61
2022-11-24T21:44:04.854Z,29.57
2022-11-24T21:46:44.130Z,29.54
2022-11-24T21:49:37.128Z,29.52
2022-11-24T21:52:07.402Z,29.53
2022-11-24T21:54:37.786Z,29.53
2022-11-24T21:57:08.170Z,29.49
2022-11-24T21:59:41.892Z,29.47
2022-11-24T22:02:13.962Z,29.45
2022-11-24T22:04:44.697Z,29.45
2022-11-24T22:07:15.254Z,29.44
2022-11-24T22:09:47.706Z,29.42
2022-11-24T22:12:18.341Z,29.44
2022-11-24T22:14:51.529Z,29.43
2022-11-24T22:17:24.246Z,29.38
2022-11-24T22:19:54.775Z,29.38
2022-11-24T22:22:25.691Z,29.41
2022-11-24T22:24:59.716Z,29.37
2022-11-24T22:27:31.086Z,29.39
2022-11-24T22:30:01.741Z,29.38
2022-11-24T22:32:31.925Z,29.38
2022-11-24T22:35:03.722Z,29.42
2022-11-24T22:37:34.563Z,29.43
2022-11-24T22:40:06.710Z,29.42
2022-11-24T22:42:38.202Z,29.43
2022-11-24T22:45:09.304Z,29.41
2022-11-24T22:47:39.864Z,29.42
2022-11-24T22:50:11.069Z,29.39
2022-11-24T22:52:41.826Z,29.43
2022-11-24T22:55:12.503Z,29.40
2022-11-24T22:57:47.439Z,29.34
2022-11-24T23:00:19.492Z,29.39
2022-11-24T23:02:49.997Z,29.36
2022-11-24T23:05:21.598Z,29.35
2022-11-24T23:07:52.852Z,29.31
2022-11-24T23:10:23.295Z,29.32
2022-11-24T23:12:55.541Z,29.31
2022-11-24T23:15:26.111Z,29.36
2022-11-24T23:17:57.456Z,29.36
2022-11-24T23:20:28.290Z,29.40
2022-11-24T23:22:59.893Z,29.37
2022-11-24T23:25:31.662Z,29.34
2022-11-24T23:28:02.768Z,29.37
2022-11-24T23:30:33.315Z,29.39
2022-11-24T23:33:03.847Z,29.41
2022-11-24T23:35:37.323Z,29.43
2022-11-24T23:38:08.210Z,29.46
2022-11-24T23:40:38.896Z,29.45
2022-11-24T23:43:09.675Z,29.57
2022-11-24T23:45:39.944Z,29.63
2022-11-24T23:48:10.505Z,29.73
2022-11-24T23:50:41.570Z,29.79
2022-11-24T23:53:11.797Z,29.77
2022-11-24T23:55:43.170Z,29.80
2022-11-24T23:58:13.972Z,29.83
